sensor_id;sensor_type;location;lat;lon;timestamp;P1;durP1;ratioP1;P2;durP2;ratioP2
41233;SDS011;26968;42.686;23.352;2023-09-12T00:01:35;5.00;;;2.40;;
41233;SDS011;26968;42.686;23.352;2023-09-12T00:04:00;7.07;;;3.00;;
41233;SDS011;26968;42.686;23.352;2023-09-12T00:06:25;10.80;;;2.97;;
41233;SDS011;26968;42.686;23.352;2023-09-12T00:08:51;6.75;;;2.97;;
41233;SDS011;26968;42.686;23.352;2023-09-12T00:11:17;7.25;;;3.58;;
41233;SDS011;26968;42.686;23.352;2023-09-12T00:13:43;6.25;;;2.70;;
41233;SDS011;26968;42.686;23.352;2023-09-12T00:16:09;7.85;;;3.33;;
41233;SDS011;26968;42.686;23.352;2023-09-12T00:18:35;11.07;;;2.97;;
41233;SDS011;26968;42.686;23.352;2023-09-12T00:21:01;6.63;;;2.92;;
41233;SDS011;26968;42.686;23.352;2023-09-12T00:23:27;11.05;;;3.30;;
41233;SDS011;26968;42.686;23.352;2023-09-12T00:25:53;6.88;;;2.78;;
41233;SDS011;26968;42.686;23.352;2023-09-12T00:28:19;8.40;;;3.47;;
41233;SDS011;26968;42.686;23.352;2023-09-12T00:30:46;8.50;;;2.67;;
41233;SDS011;26968;42.686;23.352;2023-09-12T00:33:11;12.52;;;3.60;;
41233;SDS011;26968;42.686;23.352;2023-09-12T00:35:37;6.97;;;3.33;;
41233;SDS011;26968;42.686;23.352;2023-09-12T00:38:02;7.25;;;3.45;;
41233;SDS011;26968;42.686;23.352;2023-09-12T00:40:28;7.88;;;3.10;;
41233;SDS011;26968;42.686;23.352;2023-09-12T00:42:54;8.48;;;2.70;;
41233;SDS011;26968;42.686;23.352;2023-09-12T00:45:20;11.52;;;2.90;;
41233;SDS011;26968;42.686;23.352;2023-09-12T00:47:45;12.93;;;3.13;;
41233;SDS011;26968;42.686;23.352;2023-09-12T00:50:12;4.75;;;2.70;;
41233;SDS011;26968;42.686;23.352;2023-09-12T00:52:38;10.68;;;3.20;;
41233;SDS011;26968;42.686;23.352;2023-09-12T00:55:04;20.20;;;3.30;;
41233;SDS011;26968;42.686;23.352;2023-09-12T00:57:30;5.38;;;2.58;;
41233;SDS011;26968;42.686;23.352;2023-09-12T00:59:59;9.98;;;2.92;;
41233;SDS011;26968;42.686;23.352;2023-09-12T01:02:36;13.32;;;3.00;;
41233;SDS011;26968;42.686;23.352;2023-09-12T01:05:02;5.78;;;3.00;;
41233;SDS011;26968;42.686;23.352;2023-09-12T01:07:29;4.65;;;3.10;;
41233;SDS011;26968;42.686;23.352;2023-09-12T01:09:55;7.13;;;2.92;;
41233;SDS011;26968;42.686;23.352;2023-09-12T01:12:20;7.95;;;3.28;;
41233;SDS011;26968;42.686;23.352;2023-09-12T01:14:46;9.43;;;3.30;;
41233;SDS011;26968;42.686;23.352;2023-09-12T01:17:12;8.63;;;2.78;;
41233;SDS011;26968;42.686;23.352;2023-09-12T01:19:37;6.68;;;3.22;;
41233;SDS011;26968;42.686;23.352;2023-09-12T01:27:50;9.48;;;3.72;;
41233;SDS011;26968;42.686;23.352;2023-09-12T01:30:17;13.93;;;3.50;;
41233;SDS011;26968;42.686;23.352;2023-09-12T01:32:45;10.93;;;3.60;;
41233;SDS011;26968;42.686;23.352;2023-09-12T01:35:12;9.45;;;3.95;;
41233;SDS011;26968;42.686;23.352;2023-09-12T01:37:38;10.02;;;4.65;;
41233;SDS011;26968;42.686;23.352;2023-09-12T01:40:04;12.25;;;4.80;;
41233;SDS011;26968;42.686;23.352;2023-09-12T01:42:31;12.98;;;3.92;;
41233;SDS011;26968;42.686;23.352;2023-09-12T01:45:24;12.82;;;4.47;;
41233;SDS011;26968;42.686;23.352;2023-09-12T01:47:50;11.43;;;4.75;;
41233;SDS011;26968;42.686;23.352;2023-09-12T01:50:16;9.30;;;4.32;;
41233;SDS011;26968;42.686;23.352;2023-09-12T01:52:42;18.38;;;4.28;;
41233;SDS011;26968;42.686;23.352;2023-09-12T01:55:08;10.80;;;4.07;;
41233;SDS011;26968;42.686;23.352;2023-09-12T01:57:36;15.73;;;4.47;;
41233;SDS011;26968;42.686;23.352;2023-09-12T02:00:03;12.93;;;5.32;;
41233;SDS011;26968;42.686;23.352;2023-09-12T02:02:29;12.55;;;4.38;;
41233;SDS011;26968;42.686;23.352;2023-09-12T02:07:52;11.40;;;4.65;;
41233;SDS011;26968;42.686;23.352;2023-09-12T02:10:18;15.55;;;5.25;;
41233;SDS011;26968;42.686;23.352;2023-09-12T02:12:43;12.65;;;4.60;;
41233;SDS011;26968;42.686;23.352;2023-09-12T02:15:09;11.60;;;4.35;;
41233;SDS011;26968;42.686;23.352;2023-09-12T02:17:34;14.30;;;4.75;;
41233;SDS011;26968;42.686;23.352;2023-09-12T02:20:00;15.57;;;4.97;;
41233;SDS011;26968;42.686;23.352;2023-09-12T02:22:25;16.65;;;4.55;;
41233;SDS011;26968;42.686;23.352;2023-09-12T02:24:51;9.82;;;4.68;;
41233;SDS011;26968;42.686;23.352;2023-09-12T02:27:16;8.05;;;4.53;;
41233;SDS011;26968;42.686;23.352;2023-09-12T02:29:42;7.45;;;4.20;;
41233;SDS011;26968;42.686;23.352;2023-09-12T02:32:08;15.80;;;4.38;;
41233;SDS011;26968;42.686;23.352;2023-09-12T02:34:34;11.65;;;4.63;;
41233;SDS011;26968;42.686;23.352;2023-09-12T02:36:59;14.32;;;4.40;;
41233;SDS011;26968;42.686;23.352;2023-09-12T02:39:25;11.50;;;5.07;;
41233;SDS011;26968;42.686;23.352;2023-09-12T02:41:51;12.00;;;4.43;;
41233;SDS011;26968;42.686;23.352;2023-09-12T02:44:16;10.50;;;5.40;;
41233;SDS011;26968;42.686;23.352;2023-09-12T02:46:42;8.45;;;4.18;;
41233;SDS011;26968;42.686;23.352;2023-09-12T02:49:07;11.82;;;4.38;;
41233;SDS011;26968;42.686;23.352;2023-09-12T02:51:33;10.20;;;4.85;;
41233;SDS011;26968;42.686;23.352;2023-09-12T02:53:58;16.70;;;5.10;;
41233;SDS011;26968;42.686;23.352;2023-09-12T02:56:24;9.13;;;4.72;;
41233;SDS011;26968;42.686;23.352;2023-09-12T02:58:49;14.00;;;4.10;;
41233;SDS011;26968;42.686;23.352;2023-09-12T03:01:18;29.67;;;4.97;;
41233;SDS011;26968;42.686;23.352;2023-09-12T03:03:48;8.07;;;4.25;;
41233;SDS011;26968;42.686;23.352;2023-09-12T03:06:14;7.22;;;4.85;;
41233;SDS011;26968;42.686;23.352;2023-09-12T03:08:40;16.33;;;4.55;;
41233;SDS011;26968;42.686;23.352;2023-09-12T03:11:06;10.25;;;4.28;;
41233;SDS011;26968;42.686;23.352;2023-09-12T03:13:33;13.20;;;4.85;;
41233;SDS011;26968;42.686;23.352;2023-09-12T03:15:59;6.85;;;3.80;;
41233;SDS011;26968;42.686;23.352;2023-09-12T03:18:27;12.07;;;5.13;;
41233;SDS011;26968;42.686;23.352;2023-09-12T03:20:52;11.10;;;4.93;;
41233;SDS011;26968;42.686;23.352;2023-09-12T03:23:19;12.95;;;5.43;;
41233;SDS011;26968;42.686;23.352;2023-09-12T03:25:45;12.00;;;4.80;;
41233;SDS011;26968;42.686;23.352;2023-09-12T03:28:10;11.90;;;4.95;;
41233;SDS011;26968;42.686;23.352;2023-09-12T03:30:36;9.55;;;5.22;;
41233;SDS011;26968;42.686;23.352;2023-09-12T03:33:03;13.52;;;5.00;;
41233;SDS011;26968;42.686;23.352;2023-09-12T03:35:29;18.17;;;5.90;;
41233;SDS011;26968;42.686;23.352;2023-09-12T03:37:56;14.82;;;4.65;;
41233;SDS011;26968;42.686;23.352;2023-09-12T03:40:21;11.35;;;5.25;;
41233;SDS011;26968;42.686;23.352;2023-09-12T03:42:47;15.73;;;5.55;;
41233;SDS011;26968;42.686;23.352;2023-09-12T03:45:12;14.80;;;5.80;;
41233;SDS011;26968;42.686;23.352;2023-09-12T03:47:37;15.80;;;5.75;;
41233;SDS011;26968;42.686;23.352;2023-09-12T03:50:03;21.42;;;5.28;;
41233;SDS011;26968;42.686;23.352;2023-09-12T03:52:29;14.68;;;5.85;;
41233;SDS011;26968;42.686;23.352;2023-09-12T03:54:54;15.95;;;5.93;;
41233;SDS011;26968;42.686;23.352;2023-09-12T03:57:20;15.63;;;5.78;;
41233;SDS011;26968;42.686;23.352;2023-09-12T03:59:46;14.82;;;5.57;;
41233;SDS011;26968;42.686;23.352;2023-09-12T04:02:12;16.70;;;5.90;;
41233;SDS011;26968;42.686;23.352;2023-09-12T04:04:37;15.05;;;6.15;;
41233;SDS011;26968;42.686;23.352;2023-09-12T04:07:03;12.38;;;5.65;;
41233;SDS011;26968;42.686;23.352;2023-09-12T04:09:29;19.83;;;5.60;;
41233;SDS011;26968;42.686;23.352;2023-09-12T04:11:54;17.67;;;6.38;;
41233;SDS011;26968;42.686;23.352;2023-09-12T04:14:20;16.50;;;6.20;;
41233;SDS011;26968;42.686;23.352;2023-09-12T04:16:46;22.70;;;6.53;;
41233;SDS011;26968;42.686;23.352;2023-09-12T04:19:13;13.82;;;5.70;;
41233;SDS011;26968;42.686;23.352;2023-09-12T04:21:39;19.38;;;6.53;;
41233;SDS011;26968;42.686;23.352;2023-09-12T04:24:05;13.63;;;6.15;;
41233;SDS011;26968;42.686;23.352;2023-09-12T04:26:31;19.20;;;6.20;;
41233;SDS011;26968;42.686;23.352;2023-09-12T04:28:56;17.17;;;6.57;;
41233;SDS011;26968;42.686;23.352;2023-09-12T04:31:21;11.63;;;5.65;;
41233;SDS011;26968;42.686;23.352;2023-09-12T04:33:47;27.88;;;7.22;;
41233;SDS011;26968;42.686;23.352;2023-09-12T04:36:12;17.58;;;6.60;;
41233;SDS011;26968;42.686;23.352;2023-09-12T04:38:38;21.05;;;7.13;;
41233;SDS011;26968;42.686;23.352;2023-09-12T04:41:03;22.20;;;7.65;;
41233;SDS011;26968;42.686;23.352;2023-09-12T04:43:32;20.67;;;7.25;;
41233;SDS011;26968;42.686;23.352;2023-09-12T04:45:57;17.55;;;7.18;;
41233;SDS011;26968;42.686;23.352;2023-09-12T04:48:22;14.65;;;6.68;;
41233;SDS011;26968;42.686;23.352;2023-09-12T04:50:48;19.30;;;6.65;;
41233;SDS011;26968;42.686;23.352;2023-09-12T04:53:14;18.98;;;6.45;;
41233;SDS011;26968;42.686;23.352;2023-09-12T04:55:39;19.60;;;7.00;;
41233;SDS011;26968;42.686;23.352;2023-09-12T04:58:05;21.33;;;7.15;;
41233;SDS011;26968;42.686;23.352;2023-09-12T05:00:31;26.73;;;6.93;;
41233;SDS011;26968;42.686;23.352;2023-09-12T05:02:57;28.73;;;7.53;;
41233;SDS011;26968;42.686;23.352;2023-09-12T05:05:22;21.13;;;6.75;;
41233;SDS011;26968;42.686;23.352;2023-09-12T05:07:48;17.05;;;6.65;;
41233;SDS011;26968;42.686;23.352;2023-09-12T05:10:13;24.83;;;6.47;;
41233;SDS011;26968;42.686;23.352;2023-09-12T05:12:39;13.05;;;6.18;;
41233;SDS011;26968;42.686;23.352;2023-09-12T05:15:04;29.90;;;7.68;;
41233;SDS011;26968;42.686;23.352;2023-09-12T05:17:30;19.63;;;6.45;;
41233;SDS011;26968;42.686;23.352;2023-09-12T05:19:55;22.55;;;6.30;;
41233;SDS011;26968;42.686;23.352;2023-09-12T05:22:21;15.07;;;6.85;;
41233;SDS011;26968;42.686;23.352;2023-09-12T05:24:47;13.07;;;5.35;;
41233;SDS011;26968;42.686;23.352;2023-09-12T05:27:12;11.23;;;5.13;;
41233;SDS011;26968;42.686;23.352;2023-09-12T05:29:38;14.43;;;5.63;;
41233;SDS011;26968;42.686;23.352;2023-09-12T05:32:04;22.33;;;6.15;;
41233;SDS011;26968;42.686;23.352;2023-09-12T05:34:30;23.30;;;6.65;;
41233;SDS011;26968;42.686;23.352;2023-09-12T05:36:56;22.10;;;6.85;;
41233;SDS011;26968;42.686;23.352;2023-09-12T05:39:21;14.18;;;6.50;;
41233;SDS011;26968;42.686;23.352;2023-09-12T05:41:47;15.80;;;6.50;;
41233;SDS011;26968;42.686;23.352;2023-09-12T05:44:13;17.58;;;6.38;;
41233;SDS011;26968;42.686;23.352;2023-09-12T05:46:42;17.30;;;6.45;;
41233;SDS011;26968;42.686;23.352;2023-09-12T05:49:11;19.02;;;6.68;;
41233;SDS011;26968;42.686;23.352;2023-09-12T05:51:37;21.40;;;6.55;;
41233;SDS011;26968;42.686;23.352;2023-09-12T05:54:02;23.73;;;6.60;;
41233;SDS011;26968;42.686;23.352;2023-09-12T05:56:28;23.08;;;6.63;;
41233;SDS011;26968;42.686;23.352;2023-09-12T05:58:54;18.10;;;6.80;;
41233;SDS011;26968;42.686;23.352;2023-09-12T06:01:19;24.65;;;7.18;;
41233;SDS011;26968;42.686;23.352;2023-09-12T06:03:45;19.65;;;6.70;;
41233;SDS011;26968;42.686;23.352;2023-09-12T06:06:10;14.00;;;6.07;;
41233;SDS011;26968;42.686;23.352;2023-09-12T06:08:36;14.35;;;5.15;;
41233;SDS011;26968;42.686;23.352;2023-09-12T06:11:02;27.38;;;7.78;;
41233;SDS011;26968;42.686;23.352;2023-09-12T06:13:27;15.10;;;6.28;;
41233;SDS011;26968;42.686;23.352;2023-09-12T06:15:53;19.27;;;6.40;;
41233;SDS011;26968;42.686;23.352;2023-09-12T06:18:18;15.75;;;6.80;;
41233;SDS011;26968;42.686;23.352;2023-09-12T06:20:44;18.00;;;6.93;;
41233;SDS011;26968;42.686;23.352;2023-09-12T06:23:10;33.45;;;7.03;;
41233;SDS011;26968;42.686;23.352;2023-09-12T06:25:35;18.80;;;7.18;;
41233;SDS011;26968;42.686;23.352;2023-09-12T06:28:01;22.55;;;7.68;;
41233;SDS011;26968;42.686;23.352;2023-09-12T06:30:26;21.52;;;7.25;;
41233;SDS011;26968;42.686;23.352;2023-09-12T06:32:52;26.88;;;7.25;;
41233;SDS011;26968;42.686;23.352;2023-09-12T06:35:17;17.05;;;7.25;;
41233;SDS011;26968;42.686;23.352;2023-09-12T06:37:43;27.60;;;7.32;;
41233;SDS011;26968;42.686;23.352;2023-09-12T06:40:08;23.05;;;7.30;;
41233;SDS011;26968;42.686;23.352;2023-09-12T06:42:34;21.98;;;6.70;;
41233;SDS011;26968;42.686;23.352;2023-09-12T06:44:59;11.95;;;5.90;;
41233;SDS011;26968;42.686;23.352;2023-09-12T06:47:25;12.35;;;6.10;;
41233;SDS011;26968;42.686;23.352;2023-09-12T06:49:50;15.05;;;6.20;;
41233;SDS011;26968;42.686;23.352;2023-09-12T06:52:16;15.25;;;7.20;;
41233;SDS011;26968;42.686;23.352;2023-09-12T06:54:41;17.13;;;6.50;;
41233;SDS011;26968;42.686;23.352;2023-09-12T06:57:06;35.28;;;8.57;;
41233;SDS011;26968;42.686;23.352;2023-09-12T06:59:32;19.70;;;7.40;;
41233;SDS011;26968;42.686;23.352;2023-09-12T07:01:58;18.67;;;7.53;;
41233;SDS011;26968;42.686;23.352;2023-09-12T07:04:23;19.27;;;7.20;;
41233;SDS011;26968;42.686;23.352;2023-09-12T07:06:49;23.55;;;6.03;;
41233;SDS011;26968;42.686;23.352;2023-09-12T07:09:16;19.10;;;6.90;;
41233;SDS011;26968;42.686;23.352;2023-09-12T07:11:42;18.70;;;6.55;;
41233;SDS011;26968;42.686;23.352;2023-09-12T07:14:08;20.13;;;6.03;;
41233;SDS011;26968;42.686;23.352;2023-09-12T07:16:34;17.38;;;6.75;;
41233;SDS011;26968;42.686;23.352;2023-09-12T07:19:00;13.57;;;6.50;;
41233;SDS011;26968;42.686;23.352;2023-09-12T07:21:26;14.55;;;5.78;;
41233;SDS011;26968;42.686;23.352;2023-09-12T07:23:51;22.20;;;6.25;;
41233;SDS011;26968;42.686;23.352;2023-09-12T07:26:17;21.70;;;6.00;;
41233;SDS011;26968;42.686;23.352;2023-09-12T07:28:42;18.25;;;6.70;;
41233;SDS011;26968;42.686;23.352;2023-09-12T07:31:08;11.25;;;4.55;;
41233;SDS011;26968;42.686;23.352;2023-09-12T07:33:33;11.35;;;4.88;;
41233;SDS011;26968;42.686;23.352;2023-09-12T07:35:59;16.52;;;5.00;;
41233;SDS011;26968;42.686;23.352;2023-09-12T07:38:28;16.48;;;5.05;;
41233;SDS011;26968;42.686;23.352;2023-09-12T07:40:55;12.23;;;4.57;;
41233;SDS011;26968;42.686;23.352;2023-09-12T07:43:21;14.63;;;4.00;;
41233;SDS011;26968;42.686;23.352;2023-09-12T07:45:47;18.05;;;4.57;;
41233;SDS011;26968;42.686;23.352;2023-09-12T07:48:14;12.23;;;4.18;;
41233;SDS011;26968;42.686;23.352;2023-09-12T07:50:40;9.20;;;3.80;;
41233;SDS011;26968;42.686;23.352;2023-09-12T07:53:06;10.27;;;4.82;;
41233;SDS011;26968;42.686;23.352;2023-09-12T07:55:32;10.48;;;3.90;;
41233;SDS011;26968;42.686;23.352;2023-09-12T07:58:10;11.23;;;3.85;;
41233;SDS011;26968;42.686;23.352;2023-09-12T08:00:36;11.32;;;3.80;;
41233;SDS011;26968;42.686;23.352;2023-09-12T08:03:01;20.65;;;4.57;;
41233;SDS011;26968;42.686;23.352;2023-09-12T08:05:27;10.90;;;4.30;;
41233;SDS011;26968;42.686;23.352;2023-09-12T08:07:52;11.23;;;4.78;;
41233;SDS011;26968;42.686;23.352;2023-09-12T08:10:18;6.80;;;3.55;;
41233;SDS011;26968;42.686;23.352;2023-09-12T08:12:44;6.28;;;2.80;;
41233;SDS011;26968;42.686;23.352;2023-09-12T08:15:09;14.13;;;2.97;;
41233;SDS011;26968;42.686;23.352;2023-09-12T08:17:35;12.25;;;2.83;;
41233;SDS011;26968;42.686;23.352;2023-09-12T08:20:00;11.48;;;3.20;;
41233;SDS011;26968;42.686;23.352;2023-09-12T08:22:26;9.80;;;2.85;;
41233;SDS011;26968;42.686;23.352;2023-09-12T08:24:51;10.80;;;3.03;;
41233;SDS011;26968;42.686;23.352;2023-09-12T08:27:17;17.40;;;3.67;;
41233;SDS011;26968;42.686;23.352;2023-09-12T08:29:42;8.00;;;2.80;;
41233;SDS011;26968;42.686;23.352;2023-09-12T08:32:09;6.78;;;2.80;;
41233;SDS011;26968;42.686;23.352;2023-09-12T08:34:35;9.57;;;2.88;;
41233;SDS011;26968;42.686;23.352;2023-09-12T08:37:00;9.10;;;2.55;;
41233;SDS011;26968;42.686;23.352;2023-09-12T08:39:26;16.42;;;3.25;;
41233;SDS011;26968;42.686;23.352;2023-09-12T08:41:53;7.82;;;2.83;;
41233;SDS011;26968;42.686;23.352;2023-09-12T08:44:19;9.02;;;2.70;;
41233;SDS011;26968;42.686;23.352;2023-09-12T08:46:45;10.15;;;3.25;;
41233;SDS011;26968;42.686;23.352;2023-09-12T08:49:11;14.00;;;2.95;;
41233;SDS011;26968;42.686;23.352;2023-09-12T08:51:40;9.98;;;3.33;;
41233;SDS011;26968;42.686;23.352;2023-09-12T08:54:06;5.05;;;2.40;;
41233;SDS011;26968;42.686;23.352;2023-09-12T08:56:33;6.18;;;2.65;;
41233;SDS011;26968;42.686;23.352;2023-09-12T08:59:01;5.43;;;2.72;;
41233;SDS011;26968;42.686;23.352;2023-09-12T09:01:27;8.23;;;2.22;;
41233;SDS011;26968;42.686;23.352;2023-09-12T09:03:55;8.13;;;3.15;;
41233;SDS011;26968;42.686;23.352;2023-09-12T09:06:22;16.13;;;3.08;;
41233;SDS011;26968;42.686;23.352;2023-09-12T09:08:49;6.88;;;2.92;;
41233;SDS011;26968;42.686;23.352;2023-09-12T09:11:16;12.23;;;3.72;;
41233;SDS011;26968;42.686;23.352;2023-09-12T09:13:44;7.22;;;2.63;;
41233;SDS011;26968;42.686;23.352;2023-09-12T09:21:23;11.93;;;3.30;;
41233;SDS011;26968;42.686;23.352;2023-09-12T09:23:54;8.32;;;2.97;;
41233;SDS011;26968;42.686;23.352;2023-09-12T09:26:20;8.20;;;2.90;;
41233;SDS011;26968;42.686;23.352;2023-09-12T09:29:00;8.10;;;2.75;;
41233;SDS011;26968;42.686;23.352;2023-09-12T09:31:31;6.63;;;2.58;;
41233;SDS011;26968;42.686;23.352;2023-09-12T09:33:58;12.07;;;3.22;;
41233;SDS011;26968;42.686;23.352;2023-09-12T09:36:23;6.05;;;2.75;;
41233;SDS011;26968;42.686;23.352;2023-09-12T09:38:50;5.75;;;2.47;;
41233;SDS011;26968;42.686;23.352;2023-09-12T09:41:15;6.57;;;2.92;;
41233;SDS011;26968;42.686;23.352;2023-09-12T09:43:44;8.63;;;2.55;;
41233;SDS011;26968;42.686;23.352;2023-09-12T09:46:14;10.77;;;2.90;;
41233;SDS011;26968;42.686;23.352;2023-09-12T09:48:41;7.18;;;2.88;;
41233;SDS011;26968;42.686;23.352;2023-09-12T09:51:14;11.00;;;3.35;;
41233;SDS011;26968;42.686;23.352;2023-09-12T09:53:39;8.43;;;2.72;;
41233;SDS011;26968;42.686;23.352;2023-09-12T09:56:08;17.00;;;2.83;;
41233;SDS011;26968;42.686;23.352;2023-09-12T09:58:51;9.80;;;3.38;;
41233;SDS011;26968;42.686;23.352;2023-09-12T10:01:22;13.02;;;3.10;;
41233;SDS011;26968;42.686;23.352;2023-09-12T10:03:47;6.35;;;3.47;;
41233;SDS011;26968;42.686;23.352;2023-09-12T10:06:17;11.35;;;3.97;;
41233;SDS011;26968;42.686;23.352;2023-09-12T10:08:44;10.85;;;2.92;;
41233;SDS011;26968;42.686;23.352;2023-09-12T10:11:15;8.82;;;2.95;;
41233;SDS011;26968;42.686;23.352;2023-09-12T10:13:46;14.73;;;2.75;;
41233;SDS011;26968;42.686;23.352;2023-09-12T10:16:19;6.30;;;2.53;;
41233;SDS011;26968;42.686;23.352;2023-09-12T10:24:24;5.47;;;2.20;;
41233;SDS011;26968;42.686;23.352;2023-09-12T10:26:50;8.52;;;3.10;;
41233;SDS011;26968;42.686;23.352;2023-09-12T10:29:17;10.38;;;3.10;;
41233;SDS011;26968;42.686;23.352;2023-09-12T10:31:42;6.50;;;2.60;;
41233;SDS011;26968;42.686;23.352;2023-09-12T10:34:08;10.32;;;3.47;;
41233;SDS011;26968;42.686;23.352;2023-09-12T10:36:38;11.35;;;3.13;;
41233;SDS011;26968;42.686;23.352;2023-09-12T10:39:04;10.55;;;2.92;;
41233;SDS011;26968;42.686;23.352;2023-09-12T10:41:32;7.57;;;2.83;;
41233;SDS011;26968;42.686;23.352;2023-09-12T10:43:58;11.05;;;3.13;;
41233;SDS011;26968;42.686;23.352;2023-09-12T10:46:24;8.10;;;2.70;;
41233;SDS011;26968;42.686;23.352;2023-09-12T10:48:50;9.75;;;2.95;;
41233;SDS011;26968;42.686;23.352;2023-09-12T10:51:16;8.30;;;2.92;;
41233;SDS011;26968;42.686;23.352;2023-09-12T10:53:49;10.30;;;2.50;;
41233;SDS011;26968;42.686;23.352;2023-09-12T10:56:16;3.83;;;2.40;;
41233;SDS011;26968;42.686;23.352;2023-09-12T11:01:33;12.88;;;2.70;;
41233;SDS011;26968;42.686;23.352;2023-09-12T11:04:45;10.65;;;3.20;;
41233;SDS011;26968;42.686;23.352;2023-09-12T11:06:52;8.25;;;3.53;;
41233;SDS011;26968;42.686;23.352;2023-09-12T11:09:21;12.55;;;2.45;;
41233;SDS011;26968;42.686;23.352;2023-09-12T11:11:49;9.20;;;2.65;;
41233;SDS011;26968;42.686;23.352;2023-09-12T11:14:20;10.52;;;3.00;;
41233;SDS011;26968;42.686;23.352;2023-09-12T11:17:19;16.45;;;2.92;;
41233;SDS011;26968;42.686;23.352;2023-09-12T11:19:45;8.05;;;2.47;;
41233;SDS011;26968;42.686;23.352;2023-09-12T11:22:30;10.27;;;2.60;;
41233;SDS011;26968;42.686;23.352;2023-09-12T11:24:57;10.20;;;2.47;;
41233;SDS011;26968;42.686;23.352;2023-09-12T11:28:01;9.88;;;3.20;;
41233;SDS011;26968;42.686;23.352;2023-09-12T11:30:29;11.00;;;2.97;;
41233;SDS011;26968;42.686;23.352;2023-09-12T11:32:59;7.65;;;2.40;;
41233;SDS011;26968;42.686;23.352;2023-09-12T11:35:37;5.32;;;2.70;;
41233;SDS011;26968;42.686;23.352;2023-09-12T11:43:00;9.93;;;3.33;;
41233;SDS011;26968;42.686;23.352;2023-09-12T11:45:26;8.82;;;3.05;;
41233;SDS011;26968;42.686;23.352;2023-09-12T11:47:53;12.10;;;2.55;;
41233;SDS011;26968;42.686;23.352;2023-09-12T11:50:53;5.93;;;2.53;;
41233;SDS011;26968;42.686;23.352;2023-09-12T11:53:21;8.57;;;2.83;;
41233;SDS011;26968;42.686;23.352;2023-09-12T11:55:50;6.10;;;2.60;;
41233;SDS011;26968;42.686;23.352;2023-09-12T11:58:18;8.40;;;3.15;;
41233;SDS011;26968;42.686;23.352;2023-09-12T12:00:51;9.38;;;2.83;;
41233;SDS011;26968;42.686;23.352;2023-09-12T12:03:19;11.93;;;2.70;;
41233;SDS011;26968;42.686;23.352;2023-09-12T12:05:47;7.60;;;3.47;;
41233;SDS011;26968;42.686;23.352;2023-09-12T12:08:13;10.43;;;3.40;;
41233;SDS011;26968;42.686;23.352;2023-09-12T12:10:39;8.95;;;3.22;;
41233;SDS011;26968;42.686;23.352;2023-09-12T12:13:06;10.40;;;4.60;;
41233;SDS011;26968;42.686;23.352;2023-09-12T12:15:35;9.95;;;3.85;;
41233;SDS011;26968;42.686;23.352;2023-09-12T12:18:01;6.60;;;2.65;;
41233;SDS011;26968;42.686;23.352;2023-09-12T12:20:26;13.15;;;3.38;;
41233;SDS011;26968;42.686;23.352;2023-09-12T12:22:54;8.98;;;2.97;;
41233;SDS011;26968;42.686;23.352;2023-09-12T12:25:19;11.52;;;2.80;;
41233;SDS011;26968;42.686;23.352;2023-09-12T12:27:45;12.68;;;2.97;;
41233;SDS011;26968;42.686;23.352;2023-09-12T12:30:11;13.90;;;2.90;;
41233;SDS011;26968;42.686;23.352;2023-09-12T12:32:42;7.47;;;3.05;;
41233;SDS011;26968;42.686;23.352;2023-09-12T12:35:16;6.53;;;2.80;;
41233;SDS011;26968;42.686;23.352;2023-09-12T12:37:47;9.52;;;3.30;;
41233;SDS011;26968;42.686;23.352;2023-09-12T12:40:14;12.38;;;2.83;;
41233;SDS011;26968;42.686;23.352;2023-09-12T12:42:40;8.63;;;2.75;;
41233;SDS011;26968;42.686;23.352;2023-09-12T12:45:13;13.95;;;3.10;;
41233;SDS011;26968;42.686;23.352;2023-09-12T12:47:41;11.18;;;2.85;;
41233;SDS011;26968;42.686;23.352;2023-09-12T12:50:10;10.20;;;3.47;;
41233;SDS011;26968;42.686;23.352;2023-09-12T12:52:41;10.65;;;2.85;;
41233;SDS011;26968;42.686;23.352;2023-09-12T12:55:10;7.50;;;2.72;;
41233;SDS011;26968;42.686;23.352;2023-09-12T12:57:37;13.13;;;3.42;;
41233;SDS011;26968;42.686;23.352;2023-09-12T13:00:13;6.90;;;2.95;;
41233;SDS011;26968;42.686;23.352;2023-09-12T13:02:41;6.90;;;2.58;;
41233;SDS011;26968;42.686;23.352;2023-09-12T13:05:21;7.13;;;2.70;;
41233;SDS011;26968;42.686;23.352;2023-09-12T13:07:50;13.95;;;3.33;;
41233;SDS011;26968;42.686;23.352;2023-09-12T13:10:16;9.05;;;3.10;;
41233;SDS011;26968;42.686;23.352;2023-09-12T13:12:42;13.25;;;3.40;;
41233;SDS011;26968;42.686;23.352;2023-09-12T13:15:10;11.55;;;3.53;;
41233;SDS011;26968;42.686;23.352;2023-09-12T13:17:36;7.70;;;3.20;;
41233;SDS011;26968;42.686;23.352;2023-09-12T13:20:02;10.93;;;3.47;;
41233;SDS011;26968;42.686;23.352;2023-09-12T13:22:28;6.75;;;3.28;;
41233;SDS011;26968;42.686;23.352;2023-09-12T13:24:53;18.20;;;3.42;;
41233;SDS011;26968;42.686;23.352;2023-09-12T13:27:18;12.63;;;3.75;;
41233;SDS011;26968;42.686;23.352;2023-09-12T13:29:44;10.43;;;3.13;;
41233;SDS011;26968;42.686;23.352;2023-09-12T13:32:09;9.18;;;2.90;;
41233;SDS011;26968;42.686;23.352;2023-09-12T13:34:35;7.93;;;2.95;;
41233;SDS011;26968;42.686;23.352;2023-09-12T13:37:01;6.25;;;2.58;;
41233;SDS011;26968;42.686;23.352;2023-09-12T13:39:27;9.88;;;2.78;;
41233;SDS011;26968;42.686;23.352;2023-09-12T13:41:52;15.57;;;3.65;;
41233;SDS011;26968;42.686;23.352;2023-09-12T13:44:21;8.68;;;2.92;;
41233;SDS011;26968;42.686;23.352;2023-09-12T13:46:46;9.93;;;3.20;;
41233;SDS011;26968;42.686;23.352;2023-09-12T13:49:12;9.00;;;3.25;;
41233;SDS011;26968;42.686;23.352;2023-09-12T13:51:38;8.57;;;3.20;;
41233;SDS011;26968;42.686;23.352;2023-09-12T13:54:03;12.60;;;3.50;;
41233;SDS011;26968;42.686;23.352;2023-09-12T13:56:29;9.45;;;3.47;;
41233;SDS011;26968;42.686;23.352;2023-09-12T13:58:55;9.82;;;3.53;;
41233;SDS011;26968;42.686;23.352;2023-09-12T14:01:20;5.78;;;2.80;;
41233;SDS011;26968;42.686;23.352;2023-09-12T14:03:46;18.15;;;3.22;;
41233;SDS011;26968;42.686;23.352;2023-09-12T14:06:11;13.73;;;3.17;;
41233;SDS011;26968;42.686;23.352;2023-09-12T14:08:37;7.20;;;2.88;;
41233;SDS011;26968;42.686;23.352;2023-09-12T14:11:02;13.45;;;3.97;;
41233;SDS011;26968;42.686;23.352;2023-09-12T14:13:28;11.40;;;3.72;;
41233;SDS011;26968;42.686;23.352;2023-09-12T14:15:53;11.10;;;3.33;;
41233;SDS011;26968;42.686;23.352;2023-09-12T14:18:19;11.88;;;3.03;;
41233;SDS011;26968;42.686;23.352;2023-09-12T14:20:45;8.80;;;2.90;;
41233;SDS011;26968;42.686;23.352;2023-09-12T14:23:11;12.70;;;3.95;;
41233;SDS011;26968;42.686;23.352;2023-09-12T14:25:37;4.32;;;2.88;;
41233;SDS011;26968;42.686;23.352;2023-09-12T14:28:02;18.10;;;3.47;;
41233;SDS011;26968;42.686;23.352;2023-09-12T14:30:29;5.78;;;2.67;;
41233;SDS011;26968;42.686;23.352;2023-09-12T14:33:00;5.90;;;3.00;;
41233;SDS011;26968;42.686;23.352;2023-09-12T14:35:26;11.60;;;3.28;;
41233;SDS011;26968;42.686;23.352;2023-09-12T14:37:51;8.70;;;3.10;;
41233;SDS011;26968;42.686;23.352;2023-09-12T14:40:17;8.57;;;3.13;;
41233;SDS011;26968;42.686;23.352;2023-09-12T14:42:42;12.35;;;3.45;;
41233;SDS011;26968;42.686;23.352;2023-09-12T14:45:08;9.20;;;2.72;;
41233;SDS011;26968;42.686;23.352;2023-09-12T14:47:35;6.80;;;3.33;;
41233;SDS011;26968;42.686;23.352;2023-09-12T14:50:00;11.30;;;3.45;;
41233;SDS011;26968;42.686;23.352;2023-09-12T14:52:25;15.35;;;2.67;;